sensor_id;sensor_type;location;lat;lon;timestamp;pressure;altitude;pressure_sealevel;temperature;humidity
72061;BME280;59925;52.136;5.420;2023-09-18T00:00:18;100807.41;;;16.14;100.00
72061;BME280;59925;52.136;5.420;2023-09-18T00:02:44;100806.28;;;16.15;100.00
72061;BME280;59925;52.136;5.420;2023-09-18T00:05:11;100794.66;;;16.15;100.00
72061;BME280;59925;52.136;5.420;2023-09-18T00:07:42;100794.66;;;16.15;100.00
72061;BME280;59925;52.136;5.420;2023-09-18T00:10:13;100781.97;;;16.15;100.00
72061;BME280;59925;52.136;5.420;2023-09-18T00:12:40;100778.16;;;16.16;100.00
72061;BME280;59925;52.136;5.420;2023-09-18T00:15:07;100773.53;;;16.17;100.00
72061;BME280;59925;52.136;5.420;2023-09-18T00:17:35;100766.72;;;16.19;100.00
72061;BME280;59925;52.136;5.420;2023-09-18T00:20:02;100750.00;;;16.17;100.00
72061;BME280;59925;52.136;5.420;2023-09-18T00:22:33;100745.38;;;16.18;100.00
72061;BME280;59925;52.136;5.420;2023-09-18T00:25:00;100735.66;;;16.17;100.00
72061;BME280;59925;52.136;5.420;2023-09-18T00:27:27;100731.56;;;16.19;100.00
72061;BME280;59925;52.136;5.420;2023-09-18T00:29:54;100730.75;;;16.19;100.00
72061;BME280;59925;52.136;5.420;2023-09-18T00:32:21;100729.97;;;16.18;100.00
72061;BME280;59925;52.136;5.420;2023-09-18T00:34:48;100722.97;;;16.17;100.00
72061;BME280;59925;52.136;5.420;2023-09-18T00:37:14;100712.13;;;16.17;100.00
72061;BME280;59925;52.136;5.420;2023-09-18T00:39:42;100704.03;;;16.17;100.00
72061;BME280;59925;52.136;5.420;2023-09-18T00:42:08;100705.91;;;16.17;100.00
72061;BME280;59925;52.136;5.420;2023-09-18T00:44:40;100714.84;;;16.17;100.00
72061;BME280;59925;52.136;5.420;2023-09-18T00:47:09;100714.84;;;16.17;100.00
72061;BME280;59925;52.136;5.420;2023-09-18T00:49:38;100707.50;;;16.18;100.00
72061;BME280;59925;52.136;5.420;2023-09-18T00:52:07;100700.50;;;16.17;100.00
72061;BME280;59925;52.136;5.420;2023-09-18T00:54:35;100688.09;;;16.16;100.00
72061;BME280;59925;52.136;5.420;2023-09-18T00:57:03;100686.50;;;16.15;100.00
72061;BME280;59925;52.136;5.420;2023-09-18T00:59:30;100684.59;;;16.15;100.00
72061;BME280;59925;52.136;5.420;2023-09-18T01:01:59;100665.66;;;16.15;100.00
72061;BME280;59925;52.136;5.420;2023-09-18T01:04:26;100665.34;;;16.17;100.00
72061;BME280;59925;52.136;5.420;2023-09-18T01:06:55;100665.34;;;16.17;100.00
72061;BME280;59925;52.136;5.420;2023-09-18T01:09:23;100652.63;;;16.17;100.00
72061;BME280;59925;52.136;5.420;2023-09-18T01:15:02;100641.66;;;16.14;100.00
72061;BME280;59925;52.136;5.420;2023-09-18T01:17:37;100635.09;;;16.15;100.00
72061;BME280;59925;52.136;5.420;2023-09-18T01:20:11;100622.72;;;16.14;100.00
72061;BME280;59925;52.136;5.420;2023-09-18T01:22:38;100620.03;;;16.14;100.00
72061;BME280;59925;52.136;5.420;2023-09-18T01:25:05;100621.13;;;16.13;100.00
72061;BME280;59925;52.136;5.420;2023-09-18T01:27:33;100614.63;;;16.14;100.00
72061;BME280;59925;52.136;5.420;2023-09-18T01:30:00;100606.97;;;16.16;100.00
72061;BME280;59925;52.136;5.420;2023-09-18T01:32:29;100591.53;;;16.16;100.00
72061;BME280;59925;52.136;5.420;2023-09-18T01:34:59;100594.25;;;16.16;100.00
72061;BME280;59925;52.136;5.420;2023-09-18T01:37:27;100592.03;;;16.18;100.00
72061;BME280;59925;52.136;5.420;2023-09-18T01:39:55;100578.50;;;16.18;100.00
72061;BME280;59925;52.136;5.420;2023-09-18T01:42:26;100581.22;;;16.18;100.00
72061;BME280;59925;52.136;5.420;2023-09-18T01:44:54;100583.59;;;16.20;100.00
72061;BME280;59925;52.136;5.420;2023-09-18T01:47:22;100582.50;;;16.21;100.00
72061;BME280;59925;52.136;5.420;2023-09-18T01:49:53;100582.81;;;16.19;100.00
72061;BME280;59925;52.136;5.420;2023-09-18T01:52:20;100575.81;;;16.18;100.00
72061;BME280;59925;52.136;5.420;2023-09-18T01:54:46;100576.59;;;16.19;100.00
72061;BME280;59925;52.136;5.420;2023-09-18T01:57:13;100576.28;;;16.20;100.00
72061;BME280;59925;52.136;5.420;2023-09-18T01:59:40;100580.28;;;16.23;100.00
72061;BME280;59925;52.136;5.420;2023-09-18T02:02:08;100582.66;;;16.24;100.00
72061;BME280;59925;52.136;5.420;2023-09-18T02:04:36;100589.38;;;16.27;100.00
72061;BME280;59925;52.136;5.420;2023-09-18T02:07:23;100582.81;;;16.28;100.00
72061;BME280;59925;52.136;5.420;2023-09-18T02:09:49;100585.22;;;16.30;100.00
72061;BME280;59925;52.136;5.420;2023-09-18T02:12:16;100592.72;;;16.33;100.00
72061;BME280;59925;52.136;5.420;2023-09-18T02:14:44;100588.28;;;16.46;100.00
72061;BME280;59925;52.136;5.420;2023-09-18T02:17:11;100587.97;;;16.47;100.00
72061;BME280;59925;52.136;5.420;2023-09-18T02:19:38;100590.84;;;16.51;100.00
72061;BME280;59925;52.136;5.420;2023-09-18T02:22:04;100597.19;;;16.55;100.00
72061;BME280;59925;52.136;5.420;2023-09-18T02:24:31;100587.31;;;16.50;100.00
72061;BME280;59925;52.136;5.420;2023-09-18T02:26:57;100589.53;;;16.48;100.00
72061;BME280;59925;52.136;5.420;2023-09-18T02:29:24;100578.72;;;16.48;100.00
72061;BME280;59925;52.136;5.420;2023-09-18T02:31:51;100579.38;;;16.45;100.00
72061;BME280;59925;52.136;5.420;2023-09-18T02:34:17;100563.44;;;16.44;100.00
72061;BME280;59925;52.136;5.420;2023-09-18T02:36:45;100554.53;;;16.43;100.00
72061;BME280;59925;52.136;5.420;2023-09-18T02:39:12;100547.22;;;16.44;100.00
72061;BME280;59925;52.136;5.420;2023-09-18T02:41:39;100544.50;;;16.44;100.00
72061;BME280;59925;52.136;5.420;2023-09-18T02:44:05;100537.50;;;16.43;100.00
72061;BME280;59925;52.136;5.420;2023-09-18T02:46:32;100537.19;;;16.44;100.00
72061;BME280;59925;52.136;5.420;2023-09-18T02:48:58;100525.56;;;16.44;100.00
72061;BME280;59925;52.136;5.420;2023-09-18T02:51:25;100519.53;;;16.47;100.00
72061;BME280;59925;52.136;5.420;2023-09-18T02:53:51;100513.34;;;16.46;100.00
72061;BME280;59925;52.136;5.420;2023-09-18T02:56:18;100517.31;;;16.49;100.00
72061;BME280;59925;52.136;5.420;2023-09-18T02:58:45;100512.19;;;16.56;100.00
72061;BME280;59925;52.136;5.420;2023-09-18T03:01:11;100498.53;;;16.52;100.00
72061;BME280;59925;52.136;5.420;2023-09-18T03:03:38;100493.44;;;16.51;100.00
72061;BME280;59925;52.136;5.420;2023-09-18T03:06:05;100484.84;;;16.49;100.00
72061;BME280;59925;52.136;5.420;2023-09-18T03:08:33;100475.13;;;16.48;100.00
72061;BME280;59925;52.136;5.420;2023-09-18T03:11:00;100454.59;;;16.47;100.00
72061;BME280;59925;52.136;5.420;2023-09-18T03:13:27;100450.78;;;16.48;100.00
72061;BME280;59925;52.136;5.420;2023-09-18T03:15:54;100446.63;;;16.50;100.00
72061;BME280;59925;52.136;5.420;2023-09-18T03:18:22;100455.72;;;16.54;100.00
72061;BME280;59925;52.136;5.420;2023-09-18T03:20:49;100453.47;;;16.65;100.00
72061;BME280;59925;52.136;5.420;2023-09-18T03:23:16;100451.56;;;16.66;100.00
72061;BME280;59925;52.136;5.420;2023-09-18T03:25:42;100449.34;;;16.68;100.00
72061;BME280;59925;52.136;5.420;2023-09-18T03:28:17;100446.28;;;16.69;100.00
72061;BME280;59925;52.136;5.420;2023-09-18T03:30:43;100441.69;;;16.70;100.00
72061;BME280;59925;52.136;5.420;2023-09-18T03:33:10;100438.19;;;16.69;100.00
72061;BME280;59925;52.136;5.420;2023-09-18T03:35:50;100441.06;;;16.64;100.00
72061;BME280;59925;52.136;5.420;2023-09-18T03:38:17;100442.66;;;16.65;100.00
72061;BME280;59925;52.136;5.420;2023-09-18T03:40:44;100451.56;;;16.66;100.00
72061;BME280;59925;52.136;5.420;2023-09-18T03:43:11;100450.94;;;16.69;100.00
72061;BME280;59925;52.136;5.420;2023-09-18T03:45:39;100454.91;;;16.72;100.00
72061;BME280;59925;52.136;5.420;2023-09-18T03:48:08;100452.66;;;16.82;100.00
72061;BME280;59925;52.136;5.420;2023-09-18T03:50:35;100467.78;;;16.83;100.00
72061;BME280;59925;52.136;5.420;2023-09-18T03:53:02;100463.16;;;16.84;100.00
72061;BME280;59925;52.136;5.420;2023-09-18T03:55:29;100464.44;;;16.87;100.00
72061;BME280;59925;52.136;5.420;2023-09-18T03:57:56;100451.19;;;16.94;100.00
72061;BME280;59925;52.136;5.420;2023-09-18T04:00:23;100449.94;;;16.91;100.00
72061;BME280;59925;52.136;5.420;2023-09-18T04:02:49;100440.88;;;16.87;100.00
72061;BME280;59925;52.136;5.420;2023-09-18T04:05:16;100440.22;;;16.90;100.00
72061;BME280;59925;52.136;5.420;2023-09-18T04:07:42;100429.88;;;16.92;100.00
72061;BME280;59925;52.136;5.420;2023-09-18T04:10:13;100432.09;;;16.90;100.00
72061;BME280;59925;52.136;5.420;2023-09-18T04:12:45;100421.13;;;16.95;100.00
72061;BME280;59925;52.136;5.420;2023-09-18T04:15:15;100420.63;;;17.02;100.00
72061;BME280;59925;52.136;5.420;2023-09-18T04:17:43;100416.28;;;17.10;100.00
72061;BME280;59925;52.136;5.420;2023-09-18T04:20:11;100421.06;;;17.13;100.00
72061;BME280;59925;52.136;5.420;2023-09-18T04:22:42;100411.34;;;17.12;100.00
72061;BME280;59925;52.136;5.420;2023-09-18T04:25:10;100404.19;;;17.16;100.00
72061;BME280;59925;52.136;5.420;2023-09-18T04:27:37;100396.34;;;17.14;100.00
72061;BME280;59925;52.136;5.420;2023-09-18T04:30:04;100391.25;;;17.22;100.00
72061;BME280;59925;52.136;5.420;2023-09-18T04:32:31;100382.78;;;17.23;100.00
72061;BME280;59925;52.136;5.420;2023-09-18T04:34:57;100385.63;;;17.27;100.00
72061;BME280;59925;52.136;5.420;2023-09-18T04:37:24;100372.09;;;17.27;100.00
72061;BME280;59925;52.136;5.420;2023-09-18T04:39:51;100373.69;;;17.28;100.00
72061;BME280;59925;52.136;5.420;2023-09-18T04:42:17;100365.56;;;17.28;100.00
72061;BME280;59925;52.136;5.420;2023-09-18T04:44:44;100356.31;;;17.29;100.00
72061;BME280;59925;52.136;5.420;2023-09-18T04:47:11;100360.94;;;17.28;100.00
72061;BME280;59925;52.136;5.420;2023-09-18T04:49:38;100359.34;;;17.27;100.00
72061;BME280;59925;52.136;5.420;2023-09-18T04:52:04;100349.78;;;17.30;100.00
72061;BME280;59925;52.136;5.420;2023-09-18T04:54:31;100351.34;;;17.31;100.00
72061;BME280;59925;52.136;5.420;2023-09-18T04:56:58;100365.72;;;17.31;100.00
72061;BME280;59925;52.136;5.420;2023-09-18T04:59:25;100388.97;;;17.33;100.00
72061;BME280;59925;52.136;5.420;2023-09-18T05:01:51;100423.69;;;17.39;100.00
72061;BME280;59925;52.136;5.420;2023-09-18T05:04:18;100409.78;;;17.50;100.00
72061;BME280;59925;52.136;5.420;2023-09-18T05:06:45;100404.63;;;17.57;100.00
72061;BME280;59925;52.136;5.420;2023-09-18T05:09:11;100426.59;;;17.64;100.00
72061;BME280;59925;52.136;5.420;2023-09-18T05:11:38;100431.50;;;17.71;100.00
72061;BME280;59925;52.136;5.420;2023-09-18T05:14:04;100388.59;;;17.73;100.00
72061;BME280;59925;52.136;5.420;2023-09-18T05:16:32;100394.81;;;17.73;100.00
72061;BME280;59925;52.136;5.420;2023-09-18T05:19:01;100400.69;;;17.75;100.00
72061;BME280;59925;52.136;5.420;2023-09-18T05:21:29;100394.94;;;17.77;100.00
72061;BME280;59925;52.136;5.420;2023-09-18T05:23:56;100399.88;;;17.75;100.00
72061;BME280;59925;52.136;5.420;2023-09-18T05:26:22;100381.72;;;17.75;100.00
72061;BME280;59925;52.136;5.420;2023-09-18T05:28:51;100384.44;;;17.75;100.00
72061;BME280;59925;52.136;5.420;2023-09-18T05:31:18;100385.88;;;17.73;100.00
72061;BME280;59925;52.136;5.420;2023-09-18T05:33:44;100381.25;;;17.73;100.00
72061;BME280;59925;52.136;5.420;2023-09-18T05:36:13;100393.22;;;17.72;100.00
72061;BME280;59925;52.136;5.420;2023-09-18T05:38:39;100394.03;;;17.73;100.00
72061;BME280;59925;52.136;5.420;2023-09-18T05:41:06;100405.19;;;17.71;100.00
72061;BME280;59925;52.136;5.420;2023-09-18T05:43:33;100397.03;;;17.71;100.00
72061;BME280;59925;52.136;5.420;2023-09-18T05:45:59;100395.44;;;17.70;100.00
72061;BME280;59925;52.136;5.420;2023-09-18T05:48:26;100394.19;;;17.68;100.00
72061;BME280;59925;52.136;5.420;2023-09-18T05:50:52;100405.03;;;17.68;100.00
72061;BME280;59925;52.136;5.420;2023-09-18T05:53:20;100403.59;;;17.70;100.00
72061;BME280;59925;52.136;5.420;2023-09-18T05:55:47;100410.13;;;17.69;100.00
72061;BME280;59925;52.136;5.420;2023-09-18T05:58:13;100410.13;;;17.69;100.00
72061;BME280;59925;52.136;5.420;2023-09-18T06:00:40;100397.03;;;17.71;100.00
72061;BME280;59925;52.136;5.420;2023-09-18T06:03:07;100394.34;;;17.71;100.00
72061;BME280;59925;52.136;5.420;2023-09-18T06:05:34;100395.44;;;17.70;100.00
72061;BME280;59925;52.136;5.420;2023-09-18T06:08:01;100406.63;;;17.69;100.00
72061;BME280;59925;52.136;5.420;2023-09-18T06:10:27;100399.97;;;17.66;100.00
72061;BME280;59925;52.136;5.420;2023-09-18T06:12:54;100394.53;;;17.66;100.00
72061;BME280;59925;52.136;5.420;2023-09-18T06:15:21;100394.53;;;17.66;100.00
72061;BME280;59925;52.136;5.420;2023-09-18T06:17:48;100404.56;;;17.66;100.00
72061;BME280;59925;52.136;5.420;2023-09-18T06:20:14;100416.53;;;17.65;100.00
72061;BME280;59925;52.136;5.420;2023-09-18T06:22:42;100410.94;;;17.70;100.00
72061;BME280;59925;52.136;5.420;2023-09-18T06:25:09;100395.91;;;17.72;100.00
72061;BME280;59925;52.136;5.420;2023-09-18T06:27:37;100403.72;;;17.74;100.00
72061;BME280;59925;52.136;5.420;2023-09-18T06:30:05;100410.72;;;17.75;100.00
72061;BME280;59925;52.136;5.420;2023-09-18T06:32:32;100408.50;;;17.77;100.00
72061;BME280;59925;52.136;5.420;2023-09-18T06:34:59;100414.72;;;17.77;100.00
72061;BME280;59925;52.136;5.420;2023-09-18T06:37:26;100412.47;;;17.80;100.00
72061;BME280;59925;52.136;5.420;2023-09-18T06:39:53;100409.44;;;17.81;100.00
72061;BME280;59925;52.136;5.420;2023-09-18T06:42:19;100405.25;;;17.84;100.00
72061;BME280;59925;52.136;5.420;2023-09-18T06:44:46;100406.53;;;17.86;100.00
72061;BME280;59925;52.136;5.420;2023-09-18T06:47:13;100403.13;;;17.89;100.00
72061;BME280;59925;52.136;5.420;2023-09-18T06:49:41;100408.25;;;17.91;100.00
72061;BME280;59925;52.136;5.420;2023-09-18T06:52:10;100413.34;;;17.92;100.00
72061;BME280;59925;52.136;5.420;2023-09-18T06:54:39;100414.28;;;17.97;100.00
72061;BME280;59925;52.136;5.420;2023-09-18T06:57:05;100407.88;;;18.01;100.00
72061;BME280;59925;52.136;5.420;2023-09-18T06:59:32;100406.88;;;18.06;100.00
72061;BME280;59925;52.136;5.420;2023-09-18T07:02:01;100403.19;;;18.11;100.00
72061;BME280;59925;52.136;5.420;2023-09-18T07:04:28;100403.78;;;18.16;100.00
72061;BME280;59925;52.136;5.420;2023-09-18T07:06:54;100416.81;;;18.23;100.00
72061;BME280;59925;52.136;5.420;2023-09-18T07:09:22;100420.91;;;18.29;100.00
72061;BME280;59925;52.136;5.420;2023-09-18T07:11:49;100420.69;;;18.34;100.00
72061;BME280;59925;52.136;5.420;2023-09-18T07:14:17;100419.38;;;18.41;100.00
72061;BME280;59925;52.136;5.420;2023-09-18T07:16:43;100413.75;;;18.46;100.00
72061;BME280;59925;52.136;5.420;2023-09-18T07:19:10;100426.97;;;18.47;100.00
72061;BME280;59925;52.136;5.420;2023-09-18T07:21:38;100429.34;;;18.49;100.00
72061;BME280;59925;52.136;5.420;2023-09-18T07:24:07;100432.22;;;18.52;100.00
72061;BME280;59925;52.136;5.420;2023-09-18T07:26:34;100426.78;;;18.52;100.00
72061;BME280;59925;52.136;5.420;2023-09-18T07:29:00;100415.59;;;18.54;100.00
72061;BME280;59925;52.136;5.420;2023-09-18T07:31:28;100416.53;;;18.58;100.00
72061;BME280;59925;52.136;5.420;2023-09-18T07:33:55;100409.63;;;18.61;100.00
72061;BME280;59925;52.136;5.420;2023-09-18T07:36:21;100415.97;;;18.65;100.00
72061;BME280;59925;52.136;5.420;2023-09-18T07:38:48;100418.00;;;18.68;100.00
72061;BME280;59925;52.136;5.420;2023-09-18T07:41:14;100416.88;;;18.69;100.00
72061;BME280;59925;52.136;5.420;2023-09-18T07:43:42;100423.44;;;18.68;100.00
72061;BME280;59925;52.136;5.420;2023-09-18T07:46:08;100424.00;;;18.74;100.00
72061;BME280;59925;52.136;5.420;2023-09-18T07:48:35;100415.53;;;18.75;100.00
72061;BME280;59925;52.136;5.420;2023-09-18T07:51:01;100418.72;;;18.77;100.00
72061;BME280;59925;52.136;5.420;2023-09-18T07:53:28;100422.34;;;18.81;100.00
72061;BME280;59925;52.136;5.420;2023-09-18T07:55:56;100419.75;;;18.85;100.00
72061;BME280;59925;52.136;5.420;2023-09-18T07:58:23;100415.06;;;18.94;100.00
72061;BME280;59925;52.136;5.420;2023-09-18T08:00:50;100427.16;;;18.97;100.00
72061;BME280;59925;52.136;5.420;2023-09-18T08:03:20;100424.34;;;19.06;100.00
72061;BME280;59925;52.136;5.420;2023-09-18T08:05:52;100436.81;;;19.07;100.00
72061;BME280;59925;52.136;5.420;2023-09-18T08:08:21;100438.28;;;19.04;100.00
72061;BME280;59925;52.136;5.420;2023-09-18T08:10:48;100435.22;;;19.06;100.00
72061;BME280;59925;52.136;5.420;2023-09-18T08:13:16;100439.88;;;19.05;100.00
72061;BME280;59925;52.136;5.420;2023-09-18T08:15:42;100435.22;;;19.06;100.00
72061;BME280;59925;52.136;5.420;2023-09-18T08:18:10;100441.00;;;19.04;100.00
72061;BME280;59925;52.136;5.420;2023-09-18T08:20:43;100435.88;;;19.03;100.00
72061;BME280;59925;52.136;5.420;2023-09-18T08:23:11;100445.03;;;18.98;100.00
72061;BME280;59925;52.136;5.420;2023-09-18T08:25:38;100438.13;;;19.01;100.00
72061;BME280;59925;52.136;5.420;2023-09-18T08:28:06;100454.13;;;19.02;100.00
72061;BME280;59925;52.136;5.420;2023-09-18T08:30:35;100467.69;;;19.02;100.00
72061;BME280;59925;52.136;5.420;2023-09-18T08:33:03;100462.25;;;19.02;100.00
72061;BME280;59925;52.136;5.420;2023-09-18T08:35:31;100453.50;;;19.30;100.00
72061;BME280;59925;52.136;5.420;2023-09-18T08:37:58;100446.69;;;19.49;100.00
72061;BME280;59925;52.136;5.420;2023-09-18T08:40:25;100444.88;;;19.40;100.00
72061;BME280;59925;52.136;5.420;2023-09-18T08:42:52;100458.81;;;19.51;100.00
72061;BME280;59925;52.136;5.420;2023-09-18T08:45:45;100458.13;;;19.67;100.00
72061;BME280;59925;52.136;5.420;2023-09-18T08:48:12;100453.03;;;19.65;100.00
72061;BME280;59925;52.136;5.420;2023-09-18T08:50:40;100457.22;;;19.75;100.00
72061;BME280;59925;52.136;5.420;2023-09-18T08:53:08;100462.34;;;19.89;100.00
72061;BME280;59925;52.136;5.420;2023-09-18T08:55:35;100459.63;;;19.89;100.00
72061;BME280;59925;52.136;5.420;2023-09-18T08:58:02;100468.78;;;19.97;100.00
72061;BME280;59925;52.136;5.420;2023-09-18T09:00:28;100478.63;;;20.01;100.00
72061;BME280;59925;52.136;5.420;2023-09-18T09:02:55;100477.47;;;20.15;100.00
72061;BME280;59925;52.136;5.420;2023-09-18T09:05:22;100486.00;;;20.13;99.86
72061;BME280;59925;52.136;5.420;2023-09-18T09:07:49;100498.38;;;20.11;99.84
72061;BME280;59925;52.136;5.420;2023-09-18T09:10:17;100499.25;;;20.15;98.27
72061;BME280;59925;52.136;5.420;2023-09-18T09:15:13;100500.13;;;20.31;98.06
72061;BME280;59925;52.136;5.420;2023-09-18T09:17:41;100497.00;;;20.45;97.22
72061;BME280;59925;52.136;5.420;2023-09-18T09:20:14;100485.50;;;20.77;96.45
72061;BME280;59925;52.136;5.420;2023-09-18T09:22:41;100480.22;;;21.77;95.07
72061;BME280;59925;52.136;5.420;2023-09-18T09:27:47;100498.06;;;22.65;88.90
72061;BME280;59925;52.136;5.420;2023-09-18T09:30:25;100475.75;;;23.49;85.76
72061;BME280;59925;52.136;5.420;2023-09-18T09:32:55;100483.81;;;23.18;81.64
72061;BME280;59925;52.136;5.420;2023-09-18T09:37:50;100489.31;;;21.84;84.63
72061;BME280;59925;52.136;5.420;2023-09-18T09:40:20;100496.56;;;21.61;87.99
72061;BME280;59925;52.136;5.420;2023-09-18T09:42:47;100489.69;;;21.51;87.43
72061;BME280;59925;52.136;5.420;2023-09-18T09:45:15;100495.06;;;21.31;88.76
72061;BME280;59925;52.136;5.420;2023-09-18T09:47:43;100506.03;;;21.19;88.95
72061;BME280;59925;52.136;5.420;2023-09-18T09:50:15;100517.34;;;21.05;87.60
72061;BME280;59925;52.136;5.420;2023-09-18T09:52:49;100520.31;;;20.71;87.37
72061;BME280;59925;52.136;5.420;2023-09-18T09:55:27;100511.97;;;20.51;86.98
72061;BME280;59925;52.136;5.420;2023-09-18T09:58:01;100521.41;;;20.42;87.23
72061;BME280;59925;52.136;5.420;2023-09-18T10:03:00;100521.00;;;20.68;88.89
72061;BME280;59925;52.136;5.420;2023-09-18T10:05:30;100522.47;;;20.65;87.82
72061;BME280;59925;52.136;5.420;2023-09-18T10:07:59;100525.91;;;20.62;88.11
72061;BME280;59925;52.136;5.420;2023-09-18T10:10:30;100526.84;;;20.54;86.89
72061;BME280;59925;52.136;5.420;2023-09-18T10:13:00;100525.59;;;20.51;88.08
72061;BME280;59925;52.136;5.420;2023-09-18T10:15:29;100526.16;;;20.57;88.16
72061;BME280;59925;52.136;5.420;2023-09-18T10:18:00;100524.13;;;21.11;88.35
72061;BME280;59925;52.136;5.420;2023-09-18T10:20:28;100527.16;;;21.38;86.14
72061;BME280;59925;52.136;5.420;2023-09-18T10:23:00;100519.88;;;21.42;85.43
72061;BME280;59925;52.136;5.420;2023-09-18T10:25:29;100528.44;;;21.72;82.76
72061;BME280;59925;52.136;5.420;2023-09-18T10:27:58;100528.22;;;21.97;84.04
72061;BME280;59925;52.136;5.420;2023-09-18T10:30:29;100512.69;;;22.37;81.26
72061;BME280;59925;52.136;5.420;2023-09-18T10:32:56;100521.50;;;22.46;81.08
72061;BME280;59925;52.136;5.420;2023-09-18T10:35:24;100524.88;;;22.24;79.49
72061;BME280;59925;52.136;5.420;2023-09-18T10:37:54;100540.50;;;22.23;80.77
72061;BME280;59925;52.136;5.420;2023-09-18T10:40:21;100553.19;;;22.15;nan
72061;BME280;59925;52.136;5.420;2023-09-18T10:42:50;100561.94;;;22.05;80.44
72061;BME280;59925;52.136;5.420;2023-09-18T10:45:17;100546.38;;;21.73;79.58
72061;BME280;59925;52.136;5.420;2023-09-18T10:47:44;100544.09;;;21.76;79.91
72061;BME280;59925;52.136;5.420;2023-09-18T10:50:22;100547.13;;;22.06;79.28
72061;BME280;59925;52.136;5.420;2023-09-18T10:52:49;100546.50;;;22.13;79.39
72061;BME280;59925;52.136;5.420;2023-09-18T10:55:16;100553.50;;;21.78;79.43
72061;BME280;59925;52.136;5.420;2023-09-18T10:57:56;100544.09;;;21.59;81.37
72061;BME280;59925;52.136;5.420;2023-09-18T11:00:26;100540.81;;;21.38;81.17
72061;BME280;59925;52.136;5.420;2023-09-18T11:03:15;100539.00;;;21.13;80.72
72061;BME280;59925;52.136;5.420;2023-09-18T11:05:45;100540.66;;;21.18;82.69
72061;BME280;59925;52.136;5.420;2023-09-18T11:11:08;100541.50;;;21.35;82.77
72061;BME280;59925;52.136;5.420;2023-09-18T11:13:51;100539.84;;;21.94;80.81
72061;BME280;59925;52.136;5.420;2023-09-18T11:21:32;100528.69;;;22.55;76.62
72061;BME280;59925;52.136;5.420;2023-09-18T11:26:36;100524.63;;;22.29;76.71
72061;BME280;59925;52.136;5.420;2023-09-18T11:29:07;100528.34;;;22.20;77.34
72061;BME280;59925;52.136;5.420;2023-09-18T11:31:55;100518.09;;;22.33;76.55
72061;BME280;59925;52.136;5.420;2023-09-18T11:34:27;100530.91;;;22.13;75.43
72061;BME280;59925;52.136;5.420;2023-09-18T11:36:55;100535.09;;;21.91;76.58
72061;BME280;59925;52.136;5.420;2023-09-18T11:39:39;100530.16;;;21.81;75.95
72061;BME280;59925;52.136;5.420;2023-09-18T11:42:15;100515.13;;;21.71;74.98
72061;BME280;59925;52.136;5.420;2023-09-18T11:44:43;100511.63;;;21.70;76.68
72061;BME280;59925;52.136;5.420;2023-09-18T11:47:18;100513.72;;;21.77;77.35
72061;BME280;59925;52.136;5.420;2023-09-18T11:49:53;100522.41;;;21.99;76.30
72061;BME280;59925;52.136;5.420;2023-09-18T11:52:22;100505.00;;;21.87;76.09
72061;BME280;59925;52.136;5.420;2023-09-18T11:54:49;100527.53;;;21.68;75.22
72061;BME280;59925;52.136;5.420;2023-09-18T11:57:18;100531.84;;;21.53;76.17
72061;BME280;59925;52.136;5.420;2023-09-18T11:59:46;100524.09;;;21.55;76.78
72061;BME280;59925;52.136;5.420;2023-09-18T12:02:17;100525.09;;;21.63;76.95
72061;BME280;59925;52.136;5.420;2023-09-18T12:04:55;100529.38;;;21.64;76.20
72061;BME280;59925;52.136;5.420;2023-09-18T12:07:21;100520.84;;;21.50;76.40
72061;BME280;59925;52.136;5.420;2023-09-18T12:09:49;100518.91;;;21.50;77.11
72061;BME280;59925;52.136;5.420;2023-09-18T12:12:16;100529.50;;;21.68;77.46
72061;BME280;59925;52.136;5.420;2023-09-18T12:14:44;100523.94;;;21.80;76.04
72061;BME280;59925;52.136;5.420;2023-09-18T12:17:16;100518.16;;;22.37;76.13
72061;BME280;59925;52.136;5.420;2023-09-18T12:19:53;100515.91;;;22.23;75.00
72061;BME280;59925;52.136;5.420;2023-09-18T12:22:24;100524.88;;;22.04;74.71
72061;BME280;59925;52.136;5.420;2023-09-18T12:24:51;100519.06;;;21.89;74.75
72061;BME280;59925;52.136;5.420;2023-09-18T12:27:18;100527.59;;;22.40;72.61
72061;BME280;59925;52.136;5.420;2023-09-18T12:29:45;100513.59;;;22.80;72.42
72061;BME280;59925;52.136;5.420;2023-09-18T12:32:12;100515.81;;;23.18;70.55
72061;BME280;59925;52.136;5.420;2023-09-18T12:34:42;100516.59;;;23.61;69.20
72061;BME280;59925;52.136;5.420;2023-09-18T12:37:12;100506.44;;;23.88;68.70
72061;BME280;59925;52.136;5.420;2023-09-18T12:39:39;100514.75;;;24.23;68.36
72061;BME280;59925;52.136;5.420;2023-09-18T12:42:05;100520.66;;;24.25;65.33
72061;BME280;59925;52.136;5.420;2023-09-18T12:44:32;100512.19;;;24.33;64.93
72061;BME280;59925;52.136;5.420;2023-09-18T12:47:00;100513.25;;;23.98;67.71
72061;BME280;59925;52.136;5.420;2023-09-18T12:49:29;100502.44;;;23.82;67.25
72061;BME280;59925;52.136;5.420;2023-09-18T12:51:59;100488.81;;;23.86;65.09
72061;BME280;59925;52.136;5.420;2023-09-18T12:54:43;100505.59;;;23.84;65.80
72061;BME280;59925;52.136;5.420;2023-09-18T12:57:15;100483.59;;;24.04;62.31
72061;BME280;59925;52.136;5.420;2023-09-18T12:59:42;100481.63;;;23.74;63.65
72061;BME280;59925;52.136;5.420;2023-09-18T13:02:12;100483.44;;;23.93;64.03
72061;BME280;59925;52.136;5.420;2023-09-18T13:04:39;100484.94;;;23.91;63.43
72061;BME280;59925;52.136;5.420;2023-09-18T13:07:12;100469.22;;;23.84;62.80
72061;BME280;59925;52.136;5.420;2023-09-18T13:09:40;100472.84;;;23.65;64.23
72061;BME280;59925;52.136;5.420;2023-09-18T13:12:08;100461.09;;;23.61;64.66